首页
METAR-TAF:

METAR-TAF

机场 :

New Century AirCenter

奧拉西, 堪薩斯州, 美国

纬度: 38-49-28N, 经度: 094-53-13W, 海拔: 331米

当前天气观测

该预报发布于2小时和37分钟前的02:53 UTC
风速3节,风向东北
温度 1°C
湿度 86%
气压 1005 hPa
能見度: 4.0公里
阴天层高于500英尺
轻雾

METAR: KIXD 260253Z 04003KT 2 1/2SM BR OVC005 01/M01 A2968 RMK AO2 SLP056 T00061006 53017

时间: 23:30 (05:30 UTC)

预报

该预报发布于6小时和10分钟前的23:20 UTC
预报有效从26日的 00点(UTC)到 26日的 24点(UTC)
风速8节,风向北转东北,有时为12节阵风
能見度: 3.2公里
阴天层高于500英尺
小毛毛雨, 轻雾
从 26日的 0400点(UTC)
风速8节,风向
能見度: 3.2公里
阴天层高于500英尺
(小) 冻, 毛毛雨, 轻雾
从 26日的 1400点(UTC)
风速8节,风向北转西北
能見度: 10公里
阴天层高于900英尺

TAF: KIXD 252320Z 2600/2624 02008G12KT 2SM -DZ BR OVC005 FM260400 35008KT 2SM -FZDZ BR OVC005 FM261400 34008KT P6SM OVC009

超过4000个机场的气象观测和天气预报(METAR&TAF报告)。

可查询的气象台以黄色和红色小点在地图上表示。

将鼠标移到小点上方,可查看气象台名称。

然后点击查看天气观测和预报。

如需切换地图:点击带黑十字的绿色按钮放大地图;点击带横线的绿色按钮缩小地图;或者点击绿色箭头查看邻近地区的地图。


METAR-TAF: